Time;durP1;ratioP1;P1;durP2;ratioP2;P2;SDS_P1;SDS_P2;PMS_P1;PMS_P2;Temp;Humidity;BMP_temperature;BMP_pressure;BME280_temperature;BME280_humidity;BME280_pressure;Samples;Min_cycle;Max_cycle;Signal;HPM_P1;HPM_P2
2023/06/22 00:00:15;;;;;;;13.57;12.40;;;22.20;99.90;;;;;;5077251;28;20541;-69
2023/06/22 00:02:43;;;;;;;12.60;11.30;;;22.20;99.90;;;;;;5076583;28;20484;-69
2023/06/22 00:05:10;;;;;;;13.10;11.80;;;22.10;99.90;;;;;;5077098;28;20501;-69
2023/06/22 00:07:36;;;;;;;12.50;11.40;;;22.10;99.90;;;;;;5077405;28;20754;-69
2023/06/22 00:10:04;;;;;;;12.67;11.57;;;22.10;99.90;;;;;;5076871;28;20911;-69
2023/06/22 00:12:32;;;;;;;14.80;13.30;;;22.10;99.90;;;;;;5076731;28;20486;-69
2023/06/22 00:14:58;;;;;;;13.03;11.93;;;22.10;99.90;;;;;;5077231;28;20454;-69
2023/06/22 00:17:25;;;;;;;12.03;10.90;;;22.10;99.90;;;;;;5076476;28;20472;-69
2023/06/22 00:19:55;;;;;;;12.50;11.30;;;22.00;99.90;;;;;;5076838;28;20465;-69
2023/06/22 00:22:27;;;;;;;12.83;11.63;;;22.00;99.90;;;;;;5076808;28;20478;-69
2023/06/22 00:24:54;;;;;;;13.90;12.47;;;22.00;99.90;;;;;;5077191;28;20890;-68
2023/06/22 00:27:21;;;;;;;12.97;11.87;;;22.00;99.90;;;;;;5076781;28;20450;-68
2023/06/22 00:29:48;;;;;;;12.60;11.50;;;21.90;99.90;;;;;;5076801;28;20540;-69
2023/06/22 00:32:17;;;;;;;12.93;11.63;;;21.90;99.90;;;;;;5076372;28;20533;-69
2023/06/22 00:34:43;;;;;;;13.07;11.87;;;21.90;99.90;;;;;;5076444;28;20486;-69
2023/06/22 00:37:12;;;;;;;13.33;11.93;;;21.90;99.90;;;;;;5076541;28;20992;-68
2023/06/22 00:39:41;;;;;;;11.90;10.90;;;21.80;99.90;;;;;;5077081;28;20795;-69
2023/06/22 00:42:08;;;;;;;17.53;15.93;;;21.80;99.90;;;;;;5076328;28;20489;-69
2023/06/22 00:44:36;;;;;;;12.37;11.17;;;21.80;99.90;;;;;;5076495;28;20454;-69
2023/06/22 00:47:03;;;;;;;14.03;12.60;;;21.70;99.90;;;;;;5076398;28;20537;-69
2023/06/22 00:49:30;;;;;;;12.00;10.90;;;21.70;99.90;;;;;;5076050;28;20459;-68
2023/06/22 00:51:58;;;;;;;14.00;12.17;;;21.70;99.90;;;;;;5075706;28;20544;-69
2023/06/22 00:54:28;;;;;;;12.60;11.40;;;21.60;99.90;;;;;;5076099;28;20537;-69
2023/06/22 00:56:57;;;;;;;13.10;11.80;;;21.60;99.90;;;;;;5076347;28;20538;-69
2023/06/22 00:59:26;;;;;;;13.33;12.20;;;21.50;99.90;;;;;;5076618;28;20455;-69
2023/06/22 01:01:52;;;;;;;12.47;11.37;;;21.50;99.90;;;;;;5076237;28;20478;-69
2023/06/22 01:04:19;;;;;;;13.60;12.30;;;21.50;99.90;;;;;;5076425;28;20544;-69
2023/06/22 01:06:54;;;;;;;12.70;11.40;;;21.50;99.90;;;;;;5075685;28;20493;-68
2023/06/22 01:09:28;;;;;;;13.70;12.50;;;21.40;99.90;;;;;;5075238;28;20524;-69
2023/06/22 01:12:01;;;;;;;12.50;11.03;;;21.40;99.90;;;;;;5076417;28;20783;-68
2023/06/22 01:14:35;;;;;;;12.30;11.30;;;21.40;99.90;;;;;;5075576;28;20439;-69
2023/06/22 01:17:02;;;;;;;13.00;11.83;;;21.40;99.90;;;;;;5074784;28;20446;-68
2023/06/22 01:19:41;;;;;;;12.90;11.80;;;21.30;99.90;;;;;;5075007;28;20956;-69
2023/06/22 01:22:12;;;;;;;12.63;11.53;;;21.30;99.90;;;;;;5075016;28;20497;-69
2023/06/22 01:24:49;;;;;;;17.33;12.07;;;21.20;99.90;;;;;;5074806;28;20442;-69
2023/06/22 01:27:33;;;;;;;12.80;11.53;;;21.20;99.90;;;;;;5074498;28;20914;-69
2023/06/22 01:30:05;;;;;;;12.60;11.37;;;21.20;99.90;;;;;;5074481;28;20515;-69
2023/06/22 01:32:34;;;;;;;12.77;11.77;;;21.20;99.90;;;;;;5075117;28;20454;-69
2023/06/22 01:35:04;;;;;;;11.77;10.70;;;21.10;99.90;;;;;;5075768;28;20454;-69
2023/06/22 01:37:32;;;;;;;13.10;11.90;;;21.20;99.90;;;;;;5075366;28;20486;-69
2023/06/22 01:40:00;;;;;;;13.27;12.03;;;21.20;99.90;;;;;;5075757;28;20492;-69
2023/06/22 01:42:27;;;;;;;12.40;11.40;;;21.20;99.90;;;;;;5075662;28;20501;-69
2023/06/22 01:44:57;;;;;;;13.07;11.87;;;21.20;99.90;;;;;;5075487;28;20458;-69
2023/06/22 01:47:27;;;;;;;13.03;11.83;;;21.20;99.90;;;;;;5075552;28;20443;-69
2023/06/22 01:49:54;;;;;;;13.33;12.23;;;21.20;99.90;;;;;;5075772;28;20561;-69
2023/06/22 01:52:21;;;;;;;13.10;11.90;;;21.10;99.90;;;;;;5074888;28;20466;-69
2023/06/22 01:54:49;;;;;;;14.97;12.90;;;21.10;99.90;;;;;;5074526;28;20458;-69
2023/06/22 01:57:16;;;;;;;13.77;11.80;;;21.10;99.90;;;;;;5075510;28;20472;-68
2023/06/22 01:59:49;;;;;;;13.30;11.90;;;21.10;99.90;;;;;;5074956;28;20493;-69
2023/06/22 02:02:20;;;;;;;13.80;12.47;;;21.10;99.90;;;;;;5074632;28;20618;-69
2023/06/22 02:04:54;;;;;;;13.80;12.60;;;21.10;99.90;;;;;;5074420;28;20453;-68
2023/06/22 02:07:24;;;;;;;13.57;12.27;;;21.10;99.90;;;;;;5074594;28;20461;-69
2023/06/22 02:09:53;;;;;;;14.07;12.73;;;21.00;99.90;;;;;;5074934;28;20465;-69
2023/06/22 02:12:27;;;;;;;14.10;12.70;;;21.00;99.90;;;;;;5074638;28;20549;-69
2023/06/22 02:14:55;;;;;;;14.57;13.27;;;21.00;99.90;;;;;;5074854;28;20453;-69
2023/06/22 02:17:22;;;;;;;15.03;13.70;;;21.00;99.90;;;;;;5074828;28;20464;-69
2023/06/22 02:19:50;;;;;;;16.13;14.63;;;21.00;99.90;;;;;;5075616;28;20464;-68
2023/06/22 02:22:17;;;;;;;15.70;14.20;;;21.00;99.90;;;;;;5078336;28;20481;-68
2023/06/22 02:24:44;;;;;;;15.93;14.43;;;21.00;99.90;;;;;;5078505;28;20464;-69
2023/06/22 02:27:11;;;;;;;16.57;15.07;;;21.00;99.90;;;;;;5078355;28;20541;-69
2023/06/22 02:29:38;;;;;;;15.77;14.27;;;21.00;99.90;;;;;;5078936;28;20464;-69
2023/06/22 02:32:05;;;;;;;18.13;16.20;;;21.00;99.90;;;;;;5078601;28;20454;-69
2023/06/22 02:34:36;;;;;;;16.63;15.03;;;20.90;99.90;;;;;;5078549;28;20468;-69
2023/06/22 02:37:05;;;;;;;17.70;16.00;;;20.90;99.90;;;;;;5078103;28;20485;-69
2023/06/22 02:39:32;;;;;;;17.63;15.93;;;20.90;99.90;;;;;;5077862;28;20457;-69
2023/06/22 02:41:59;;;;;;;17.10;15.40;;;20.90;99.90;;;;;;5078202;28;20914;-69
2023/06/22 02:44:25;;;;;;;17.60;16.00;;;20.90;99.90;;;;;;5077776;28;20553;-69
2023/06/22 02:46:54;;;;;;;17.67;15.90;;;20.90;99.90;;;;;;5078365;28;20506;-68
2023/06/22 02:49:20;;;;;;;15.93;14.20;;;20.90;99.90;;;;;;5078084;28;20549;-69
2023/06/22 02:51:48;;;;;;;20.83;15.60;;;20.90;99.90;;;;;;5078710;28;20550;-69
2023/06/22 02:54:17;;;;;;;17.07;15.57;;;21.00;99.90;;;;;;5077598;28;20498;-69
2023/06/22 02:56:44;;;;;;;18.27;16.50;;;21.00;99.90;;;;;;5077759;28;20930;-69
2023/06/22 02:59:14;;;;;;;17.20;15.53;;;21.00;99.90;;;;;;5077416;28;20477;-69
2023/06/22 03:01:41;;;;;;;17.30;15.43;;;21.00;99.90;;;;;;5077146;28;20530;-69
2023/06/22 03:04:08;;;;;;;18.90;17.00;;;21.00;99.90;;;;;;5077300;28;20590;-69
2023/06/22 03:06:36;;;;;;;16.60;15.00;;;21.00;99.90;;;;;;5077632;28;20533;-69
2023/06/22 03:09:04;;;;;;;17.00;15.47;;;21.00;99.90;;;;;;5077706;28;20498;-69
2023/06/22 03:11:33;;;;;;;17.77;16.07;;;21.00;99.90;;;;;;5077624;28;20519;-69
2023/06/22 03:14:00;;;;;;;18.63;16.97;;;21.00;99.90;;;;;;5077837;28;20551;-69
2023/06/22 03:16:27;;;;;;;20.03;16.33;;;21.00;99.90;;;;;;5077619;28;20465;-69
2023/06/22 03:18:57;;;;;;;19.23;17.13;;;21.00;99.90;;;;;;5077581;28;20877;-69
2023/06/22 03:21:24;;;;;;;19.87;17.63;;;21.00;99.90;;;;;;5077777;28;20472;-69
2023/06/22 03:23:51;;;;;;;18.10;16.13;;;21.00;99.90;;;;;;5077312;28;20564;-69
2023/06/22 03:26:19;;;;;;;18.77;16.80;;;21.00;99.90;;;;;;5077687;28;20758;-68
2023/06/22 03:28:47;;;;;;;21.10;16.93;;;21.00;99.90;;;;;;5078160;28;20948;-68
2023/06/22 03:31:14;;;;;;;19.13;17.03;;;20.90;99.90;;;;;;5077398;28;20458;-68
2023/06/22 03:33:41;;;;;;;18.67;16.70;;;20.90;99.90;;;;;;5077981;28;20455;-68
2023/06/22 03:36:11;;;;;;;17.10;15.47;;;20.90;99.90;;;;;;5077607;28;20549;-69
2023/06/22 03:38:38;;;;;;;17.53;15.80;;;20.90;99.90;;;;;;5077070;28;20948;-68
2023/06/22 03:41:04;;;;;;;15.53;14.13;;;20.80;99.90;;;;;;5077503;28;20505;-68
2023/06/22 03:43:31;;;;;;;16.33;14.83;;;20.70;99.90;;;;;;5077572;28;20569;-69
2023/06/22 03:45:59;;;;;;;15.33;13.93;;;20.70;99.90;;;;;;5077338;28;20497;-68
2023/06/22 03:48:26;;;;;;;14.67;13.20;;;20.70;99.90;;;;;;5077498;28;20541;-68
2023/06/22 03:50:53;;;;;;;14.60;13.20;;;20.70;99.90;;;;;;5077447;28;20464;-68
2023/06/22 03:53:20;;;;;;;14.93;13.40;;;20.70;99.90;;;;;;5077160;28;20941;-69
2023/06/22 03:55:51;;;;;;;13.83;12.53;;;20.60;99.90;;;;;;5077777;28;20474;-69
2023/06/22 03:58:20;;;;;;;15.07;13.50;;;20.60;99.90;;;;;;5077606;28;20458;-68
2023/06/22 04:00:48;;;;;;;14.00;12.80;;;20.60;99.90;;;;;;5076944;28;20973;-68
2023/06/22 04:03:18;;;;;;;13.60;12.30;;;20.60;99.90;;;;;;5076995;28;20489;-68
2023/06/22 04:05:45;;;;;;;15.17;13.77;;;20.50;99.90;;;;;;5076932;28;20771;-68
2023/06/22 04:08:13;;;;;;;14.87;13.37;;;20.50;99.90;;;;;;5077178;28;20544;-68
2023/06/22 04:10:40;;;;;;;13.57;12.27;;;20.60;99.90;;;;;;5077349;28;20454;-68
2023/06/22 04:13:10;;;;;;;13.00;11.70;;;20.60;99.90;;;;;;5078277;28;20777;-68
2023/06/22 04:15:37;;;;;;;13.17;11.83;;;20.60;99.90;;;;;;5077513;28;20903;-68
2023/06/22 04:18:04;;;;;;;14.90;12.90;;;20.70;99.90;;;;;;5078308;28;20464;-68
2023/06/22 04:20:32;;;;;;;13.57;11.47;;;20.70;99.90;;;;;;5079002;28;20553;-68
2023/06/22 04:22:59;;;;;;;13.33;12.03;;;20.80;99.90;;;;;;5078610;28;20849;-68
2023/06/22 04:25:29;;;;;;;12.60;11.40;;;20.80;99.90;;;;;;5079317;28;20454;-68
2023/06/22 04:27:56;;;;;;;14.67;11.57;;;20.90;99.90;;;;;;5079161;28;20540;-68
2023/06/22 04:30:23;;;;;;;12.10;11.07;;;20.90;99.90;;;;;;5079216;28;20530;-68
2023/06/22 04:32:56;;;;;;;13.07;11.83;;;21.00;99.90;;;;;;5079407;28;20493;-68
2023/06/22 04:35:26;;;;;;;11.27;10.27;;;21.00;99.90;;;;;;5079610;28;20449;-68
2023/06/22 04:37:55;;;;;;;12.10;10.90;;;21.00;99.90;;;;;;5079372;28;20572;-68
2023/06/22 04:40:23;;;;;;;11.07;9.50;;;21.10;99.90;;;;;;5080229;28;20462;-68
2023/06/22 04:42:53;;;;;;;10.33;9.23;;;21.10;99.90;;;;;;5077872;28;20474;-68
2023/06/22 04:45:21;;;;;;;10.87;9.50;;;21.10;99.90;;;;;;5077501;28;20450;-68
2023/06/22 04:47:48;;;;;;;10.27;9.23;;;21.20;99.90;;;;;;5077205;28;20477;-68
2023/06/22 04:50:16;;;;;;;9.40;8.50;;;21.20;99.90;;;;;;5077406;28;20454;-68
2023/06/22 04:52:43;;;;;;;10.10;9.00;;;21.20;99.90;;;;;;5078284;28;20469;-68
2023/06/22 04:55:11;;;;;;;10.37;9.37;;;21.20;99.90;;;;;;5077914;28;20564;-68
2023/06/22 04:57:39;;;;;;;17.93;16.23;;;21.30;99.90;;;;;;5077996;28;20516;-68
2023/06/22 05:00:12;;;;;;;70.80;63.20;;;21.30;99.90;;;;;;5077314;28;20464;-67
2023/06/22 05:02:39;;;;;;;12.47;11.17;;;21.40;99.90;;;;;;5077645;28;20453;-67
2023/06/22 05:05:07;;;;;;;15.10;9.60;;;21.40;99.90;;;;;;5077437;28;20465;-67
2023/06/22 05:07:34;;;;;;;8.63;7.83;;;21.40;99.90;;;;;;5077525;28;20486;-68
2023/06/22 05:10:01;;;;;;;9.23;7.07;;;21.50;99.90;;;;;;5076786;28;20855;-68
2023/06/22 05:12:31;;;;;;;8.10;7.40;;;21.60;99.90;;;;;;5075988;28;20549;-68
2023/06/22 05:14:58;;;;;;;9.57;6.43;;;21.60;99.90;;;;;;5075834;28;20450;-68
2023/06/22 05:17:28;;;;;;;6.60;5.90;;;21.70;99.90;;;;;;5076700;28;20848;-68
2023/06/22 05:19:55;;;;;;;7.53;6.43;;;21.80;99.90;;;;;;5076533;28;20541;-68
2023/06/22 05:22:22;;;;;;;7.10;6.10;;;21.90;99.90;;;;;;5076862;28;20942;-68
2023/06/22 05:24:49;;;;;;;117.17;94.07;;;22.00;99.90;;;;;;5076023;28;20569;-68
2023/06/22 05:27:16;;;;;;;15.07;13.53;;;22.10;99.90;;;;;;5076177;28;20458;-68
2023/06/22 05:29:44;;;;;;;7.27;6.03;;;22.20;99.90;;;;;;5075353;28;20462;-68
2023/06/22 05:32:11;;;;;;;5.90;5.30;;;22.20;99.90;;;;;;5075933;28;20493;-67
2023/06/22 05:34:38;;;;;;;5.73;5.13;;;22.30;99.90;;;;;;5075766;28;20461;-67
2023/06/22 05:37:06;;;;;;;5.23;4.73;;;22.30;99.90;;;;;;5074657;28;20947;-67
2023/06/22 05:39:33;;;;;;;6.07;4.70;;;22.40;99.90;;;;;;5075644;28;20464;-68
2023/06/22 05:41:59;;;;;;;6.50;5.10;;;22.40;99.90;;;;;;5075251;28;20490;-68
2023/06/22 05:44:26;;;;;;;6.73;5.20;;;22.40;99.90;;;;;;5075401;28;20613;-68
2023/06/22 05:46:55;;;;;;;5.33;4.33;;;22.40;99.90;;;;;;5075348;28;20505;-68
2023/06/22 05:49:22;;;;;;;5.40;4.50;;;22.50;99.90;;;;;;5075124;28;20459;-68
2023/06/22 05:51:49;;;;;;;5.20;3.97;;;22.50;99.90;;;;;;5075682;28;20805;-68
2023/06/22 05:54:17;;;;;;;7.20;5.27;;;22.50;99.90;;;;;;5076862;28;20895;-68
2023/06/22 05:56:44;;;;;;;5.10;4.27;;;22.50;99.90;;;;;;5079675;28;20502;-68
2023/06/22 05:59:12;;;;;;;6.13;4.60;;;22.60;99.90;;;;;;5079913;28;20500;-68
2023/06/22 06:01:40;;;;;;;6.90;4.73;;;22.60;99.90;;;;;;5080555;28;20450;-68
2023/06/22 06:04:08;;;;;;;5.97;4.23;;;22.70;99.90;;;;;;5079777;28;20470;-68
2023/06/22 06:06:37;;;;;;;4.47;4.07;;;22.70;99.90;;;;;;5079682;28;20454;-68
2023/06/22 06:09:04;;;;;;;5.53;4.57;;;22.70;99.90;;;;;;5080343;28;20483;-68
2023/06/22 06:11:31;;;;;;;4.63;4.23;;;22.80;99.90;;;;;;5080410;28;20923;-68
2023/06/22 06:13:58;;;;;;;5.83;5.23;;;22.80;99.90;;;;;;5080194;28;20465;-68
2023/06/22 06:16:25;;;;;;;5.40;4.60;;;22.80;99.90;;;;;;5079570;28;20549;-68
2023/06/22 06:18:54;;;;;;;9.70;5.20;;;22.80;99.90;;;;;;5079962;28;20483;-68
2023/06/22 06:21:23;;;;;;;7.03;5.07;;;22.80;99.90;;;;;;5079725;28;20457;-68
2023/06/22 06:23:50;;;;;;;7.90;5.03;;;22.80;99.90;;;;;;5079324;28;20573;-68
2023/06/22 06:26:17;;;;;;;5.07;4.57;;;22.80;99.90;;;;;;5079746;28;20467;-68
2023/06/22 06:28:44;;;;;;;7.73;5.50;;;22.80;99.90;;;;;;5080065;28;20462;-68
2023/06/22 06:31:12;;;;;;;5.83;5.27;;;22.80;99.90;;;;;;5080071;28;20454;-68
2023/06/22 06:33:39;;;;;;;9.73;5.13;;;22.80;99.90;;;;;;5079902;28;20469;-68
2023/06/22 06:36:08;;;;;;;5.20;4.60;;;22.90;99.90;;;;;;5079574;28;20519;-68
2023/06/22 06:38:36;;;;;;;5.03;4.10;;;22.90;99.90;;;;;;5079039;28;20477;-69
2023/06/22 06:41:06;;;;;;;5.83;4.27;;;22.90;99.90;;;;;;5079621;28;20450;-69
2023/06/22 06:43:33;;;;;;;5.83;3.80;;;22.90;99.90;;;;;;5079564;28;20578;-68
2023/06/22 06:46:00;;;;;;;4.40;3.83;;;23.00;99.90;;;;;;5079982;28;20461;-68
2023/06/22 06:48:27;;;;;;;3.93;3.43;;;23.10;99.90;;;;;;5080085;28;20519;-68
2023/06/22 06:50:53;;;;;;;9.10;5.53;;;23.20;99.90;;;;;;5079410;28;20549;-69
2023/06/22 06:53:20;;;;;;;10.23;8.50;;;23.20;99.90;;;;;;5079678;28;20540;-69
2023/06/22 06:55:49;;;;;;;23.70;19.40;;;23.20;99.90;;;;;;5080420;28;20454;-69
2023/06/22 06:58:16;;;;;;;5.50;4.80;;;23.40;99.90;;;;;;5080645;28;20490;-69
2023/06/22 07:00:43;;;;;;;5.53;4.37;;;23.40;99.90;;;;;;5081025;28;20458;-69
2023/06/22 07:03:10;;;;;;;6.30;5.10;;;23.40;99.90;;;;;;5080480;28;20767;-68
2023/06/22 07:05:37;;;;;;;4.90;4.40;;;23.50;99.90;;;;;;5080364;28;20950;-68
2023/06/22 07:08:04;;;;;;;4.80;4.40;;;23.60;99.90;;;;;;5081238;28;20482;-69
2023/06/22 07:10:31;;;;;;;7.50;3.40;;;23.70;99.90;;;;;;5080692;28;20782;-69
2023/06/22 07:12:59;;;;;;;4.60;4.00;;;23.70;99.90;;;;;;5080021;28;20450;-69
2023/06/22 07:15:26;;;;;;;4.67;4.23;;;23.80;99.90;;;;;;5080368;28;20451;-69
2023/06/22 07:17:55;;;;;;;6.03;4.47;;;23.90;99.90;;;;;;5080474;28;20552;-69
2023/06/22 07:20:22;;;;;;;6.60;4.63;;;24.00;99.90;;;;;;5080642;28;20500;-68
2023/06/22 07:22:52;;;;;;;4.57;4.00;;;24.10;99.90;;;;;;5080432;28;20544;-69
2023/06/22 07:25:19;;;;;;;8.90;4.10;;;24.20;99.90;;;;;;5080906;28;20492;-68
2023/06/22 07:27:57;;;;;;;3.83;3.17;;;24.40;99.90;;;;;;5079435;28;20458;-67
2023/06/22 07:30:26;;;;;;;4.23;3.30;;;24.50;99.90;;;;;;5079224;28;20442;-68
2023/06/22 07:32:54;;;;;;;3.47;3.10;;;24.50;99.90;;;;;;5079241;28;20519;-68
2023/06/22 07:35:22;;;;;;;3.40;3.13;;;24.70;99.90;;;;;;5079775;28;20461;-68
2023/06/22 07:37:49;;;;;;;4.93;2.80;;;24.70;99.90;;;;;;5079768;28;20486;-68
2023/06/22 07:40:16;;;;;;;4.90;3.20;;;24.80;99.90;;;;;;5080267;28;20553;-68
2023/06/22 07:42:43;;;;;;;3.50;3.20;;;24.90;99.90;;;;;;5079701;28;20541;-68
2023/06/22 07:45:10;;;;;;;3.40;2.80;;;25.00;99.90;;;;;;5078425;28;20482;-68
2023/06/22 07:47:38;;;;;;;3.13;2.83;;;25.00;99.90;;;;;;5077777;28;20537;-68
2023/06/22 07:50:06;;;;;;;4.60;3.03;;;25.10;99.90;;;;;;5077717;28;20497;-68
2023/06/22 07:52:37;;;;;;;3.20;2.90;;;25.20;99.90;;;;;;5077331;28;20938;-68
2023/06/22 07:55:04;;;;;;;3.97;2.60;;;25.30;99.90;;;;;;5077780;28;20541;-68
2023/06/22 07:57:33;;;;;;;2.83;2.50;;;25.30;99.90;;;;;;5077951;28;20537;-69
2023/06/22 08:00:00;;;;;;;3.83;2.60;;;25.40;99.90;;;;;;5077780;28;20597;-69
2023/06/22 08:02:27;;;;;;;3.07;2.67;;;25.50;99.90;;;;;;5077640;28;20482;-68
2023/06/22 08:04:55;;;;;;;3.47;2.23;;;25.50;99.90;;;;;;5076579;28;20500;-69
2023/06/22 08:07:22;;;;;;;22.20;18.17;;;25.50;99.90;;;;;;5076118;28;20557;-67
2023/06/22 08:09:49;;;;;;;9.07;8.17;;;25.60;99.90;;;;;;5076388;28;20468;-68
2023/06/22 08:12:17;;;;;;;3.23;2.70;;;25.60;99.90;;;;;;5076053;28;20885;-68
2023/06/22 08:14:46;;;;;;;4.13;3.43;;;25.70;99.90;;;;;;5076012;28;20460;-68
2023/06/22 08:17:13;;;;;;;4.00;3.57;;;25.70;99.90;;;;;;5074964;28;20511;-68
2023/06/22 08:19:41;;;;;;;2.93;2.73;;;25.80;99.90;;;;;;5075698;28;20481;-68
2023/06/22 08:22:09;;;;;;;4.10;3.37;;;25.90;99.90;;;;;;5075814;28;20490;-67
2023/06/22 08:24:36;;;;;;;3.07;2.77;;;26.00;99.90;;;;;;5075700;28;20803;-68
2023/06/22 08:27:03;;;;;;;5.40;2.77;;;26.00;99.90;;;;;;5075583;28;20489;-67
2023/06/22 08:29:29;;;;;;;3.17;2.43;;;26.10;99.90;;;;;;5075493;28;20763;-67
2023/06/22 08:31:56;;;;;;;6.80;3.23;;;26.20;99.90;;;;;;5075168;28;20459;-67
2023/06/22 08:34:27;;;;;;;3.00;2.70;;;26.10;99.90;;;;;;5075378;28;20454;-67
2023/06/22 08:36:54;;;;;;;4.83;3.17;;;26.20;99.90;;;;;;5075710;28;20970;-68
2023/06/22 08:39:23;;;;;;;6.03;2.77;;;26.10;99.90;;;;;;5075491;28;20454;-68
2023/06/22 08:41:50;;;;;;;10.37;8.70;;;26.20;99.90;;;;;;5075460;28;20545;-68
2023/06/22 08:44:20;;;;;;;9.60;6.07;;;26.20;99.90;;;;;;5075687;28;21016;-66
2023/06/22 08:46:47;;;;;;;6.43;3.63;;;26.30;99.90;;;;;;5075618;28;20521;-68
2023/06/22 08:49:15;;;;;;;4.50;4.10;;;26.40;99.90;;;;;;5075627;28;20458;-68
2023/06/22 08:51:42;;;;;;;3.53;3.23;;;26.50;99.90;;;;;;5075167;28;20454;-68
2023/06/22 08:54:08;;;;;;;6.30;4.50;;;26.50;99.90;;;;;;5075471;28;20521;-68
2023/06/22 08:56:40;;;;;;;4.40;3.93;;;26.60;99.90;;;;;;5075102;28;20462;-68
2023/06/22 08:59:07;;;;;;;3.13;2.80;;;26.60;99.90;;;;;;5075396;28;20439;-68
2023/06/22 09:01:34;;;;;;;3.93;3.63;;;26.60;99.90;;;;;;5075530;28;20587;-67
2023/06/22 09:04:01;;;;;;;3.90;3.10;;;26.60;99.90;;;;;;5075148;28;20486;-68
2023/06/22 09:06:31;;;;;;;3.73;3.40;;;26.60;99.90;;;;;;5074724;28;20943;-68
2023/06/22 09:08:59;;;;;;;6.40;3.57;;;26.60;99.90;;;;;;5075035;28;20486;-68
2023/06/22 09:11:26;;;;;;;4.27;3.57;;;26.50;99.90;;;;;;5075071;28;20545;-68
2023/06/22 09:13:54;;;;;;;4.23;3.70;;;26.60;99.90;;;;;;5074957;28;20519;-69
2023/06/22 09:16:21;;;;;;;9.60;3.60;;;26.60;99.90;;;;;;5074581;28;20461;-67
2023/06/22 09:18:49;;;;;;;5.57;4.43;;;26.70;99.90;;;;;;5074359;28;20465;-67
2023/06/22 09:21:16;;;;;;;4.17;3.33;;;26.80;99.90;;;;;;5074480;28;20458;-68
2023/06/22 09:23:43;;;;;;;3.97;3.57;;;26.90;99.90;;;;;;5075120;28;20457;-68
2023/06/22 09:26:10;;;;;;;6.07;3.40;;;27.10;99.90;;;;;;5074988;28;20833;-68
2023/06/22 09:28:37;;;;;;;3.50;3.20;;;27.10;99.20;;;;;;5074430;28;20524;-68
2023/06/22 09:31:06;;;;;;;3.93;3.63;;;27.20;99.60;;;;;;5074736;28;20473;-68
2023/06/22 09:33:33;;;;;;;3.47;3.17;;;27.30;99.40;;;;;;5075127;28;20466;-68
2023/06/22 09:36:00;;;;;;;3.73;3.43;;;27.30;99.20;;;;;;5074730;28;20460;-68
2023/06/22 09:38:27;;;;;;;3.10;2.80;;;27.40;97.10;;;;;;5074519;28;20957;-68
2023/06/22 09:40:55;;;;;;;4.50;3.30;;;27.40;96.00;;;;;;5074582;28;20447;-68
2023/06/22 09:43:22;;;;;;;5.27;3.30;;;27.40;95.70;;;;;;5074917;28;20760;-68
2023/06/22 09:45:49;;;;;;;5.07;3.33;;;27.50;95.50;;;;;;5074706;28;20478;-67
2023/06/22 09:48:17;;;;;;;6.27;3.73;;;27.50;96.20;;;;;;5074465;28;20490;-69
2023/06/22 09:50:44;;;;;;;4.30;3.90;;;27.40;96.60;;;;;;5074544;28;20464;-67
2023/06/22 09:53:11;;;;;;;10.20;9.27;;;27.50;96.30;;;;;;5074237;28;20464;-67
2023/06/22 09:55:38;;;;;;;3.50;3.20;;;27.60;95.80;;;;;;5074755;28;20486;-67
2023/06/22 09:58:05;;;;;;;3.77;3.43;;;27.70;93.30;;;;;;5075032;28;20915;-68
2023/06/22 10:00:32;;;;;;;3.77;3.30;;;27.80;93.70;;;;;;5074797;28;20525;-67
2023/06/22 10:02:59;;;;;;;4.63;3.23;;;27.80;93.60;;;;;;5075044;28;20476;-67
2023/06/22 10:05:27;;;;;;;4.07;3.67;;;27.90;92.40;;;;;;5074793;28;20607;-67
2023/06/22 10:07:54;;;;;;;4.70;3.90;;;27.90;91.40;;;;;;5074354;28;20534;-67
2023/06/22 10:10:21;;;;;;;3.60;3.30;;;27.90;92.20;;;;;;5074406;28;20465;-67
2023/06/22 10:12:55;;;;;;;4.70;3.00;;;27.90;90.80;;;;;;5073979;28;20537;-66
2023/06/22 10:15:22;;;;;;;3.83;3.30;;;27.90;90.40;;;;;;5074346;28;20438;-67
2023/06/22 10:17:49;;;;;;;7.43;3.60;;;27.90;91.00;;;;;;5073986;28;20454;-68
2023/06/22 10:20:18;;;;;;;7.60;3.30;;;27.90;92.70;;;;;;5074644;28;20659;-68
2023/06/22 10:22:46;;;;;;;3.97;3.67;;;28.00;93.30;;;;;;5074390;28;20454;-68
2023/06/22 10:25:14;;;;;;;3.50;3.20;;;28.10;92.80;;;;;;5073802;28;20531;-67
2023/06/22 10:27:41;;;;;;;3.80;3.50;;;28.20;91.10;;;;;;5074407;28;20537;-68
2023/06/22 10:30:09;;;;;;;4.07;3.63;;;28.30;92.70;;;;;;5074303;28;20451;-68
2023/06/22 10:32:37;;;;;;;4.40;4.00;;;28.40;92.10;;;;;;5074334;28;20537;-67
2023/06/22 10:35:04;;;;;;;6.37;3.60;;;28.40;91.80;;;;;;5074033;28;20922;-67
2023/06/22 10:37:31;;;;;;;5.87;3.30;;;28.40;92.50;;;;;;5073868;28;20879;-67
2023/06/22 10:39:59;;;;;;;3.63;3.30;;;28.50;91.50;;;;;;5073784;28;20838;-67
2023/06/22 10:42:29;;;;;;;3.93;3.50;;;28.50;90.20;;;;;;5077220;28;20485;-69
2023/06/22 10:44:56;;;;;;;30.60;27.43;;;28.60;90.40;;;;;;5077799;28;20543;-67
2023/06/22 10:47:23;;;;;;;4.87;4.47;;;28.70;90.10;;;;;;5078081;28;20458;-67
2023/06/22 10:49:50;;;;;;;4.33;3.50;;;28.80;88.90;;;;;;5078894;28;20552;-67
2023/06/22 10:52:19;;;;;;;3.70;3.30;;;28.80;85.30;;;;;;5079132;28;20819;-67
2023/06/22 10:54:46;;;;;;;4.00;3.70;;;28.90;85.20;;;;;;5079130;28;20512;-67
2023/06/22 10:57:15;;;;;;;5.53;4.17;;;28.90;86.00;;;;;;5079228;28;20857;-67
2023/06/22 10:59:41;;;;;;;6.93;5.13;;;29.00;84.30;;;;;;5078814;28;20500;-67
2023/06/22 11:02:08;;;;;;;4.37;3.97;;;29.10;86.10;;;;;;5079735;28;20458;-68
2023/06/22 11:04:35;;;;;;;4.37;3.97;;;29.20;84.00;;;;;;5079139;28;20501;-69
2023/06/22 11:07:02;;;;;;;5.93;5.23;;;29.30;79.90;;;;;;5081601;28;20526;-69
2023/06/22 11:09:29;;;;;;;7.50;5.50;;;29.20;79.20;;;;;;5078639;28;20454;-68
2023/06/22 11:11:58;;;;;;;4.07;3.77;;;29.20;80.60;;;;;;5078465;28;20464;-67
2023/06/22 11:14:27;;;;;;;6.90;4.17;;;29.20;80.70;;;;;;5079066;28;20454;-68
2023/06/22 11:16:53;;;;;;;5.87;4.00;;;29.30;77.70;;;;;;5078749;28;20460;-68
2023/06/22 11:19:20;;;;;;;4.33;3.87;;;29.50;77.40;;;;;;5079183;28;20454;-68
2023/06/22 11:21:47;;;;;;;3.70;3.17;;;29.70;77.00;;;;;;5079837;28;20791;-68
2023/06/22 11:24:14;;;;;;;3.87;3.53;;;30.00;76.80;;;;;;5078885;28;20458;-67
2023/06/22 11:26:41;;;;;;;4.80;3.10;;;30.30;77.50;;;;;;5078219;28;20543;-68
2023/06/22 11:29:08;;;;;;;5.00;3.97;;;30.60;73.10;;;;;;5079223;28;20934;-67
2023/06/22 11:31:37;;;;;;;7.57;4.97;;;31.20;70.60;;;;;;5082846;28;20482;-68
2023/06/22 11:34:04;;;;;;;4.30;3.87;;;31.90;65.00;;;;;;5080944;28;20464;-68
2023/06/22 11:36:32;;;;;;;6.57;4.37;;;32.20;58.50;;;;;;5080352;28;20482;-68
2023/06/22 11:39:02;;;;;;;7.93;5.00;;;32.10;55.90;;;;;;5079129;28;20521;-67
2023/06/22 11:41:29;;;;;;;6.70;6.00;;;31.80;55.60;;;;;;5079922;28;20986;-68
2023/06/22 11:43:56;;;;;;;6.67;5.90;;;31.80;57.00;;;;;;5080412;28;20526;-68
2023/06/22 11:46:23;;;;;;;4.67;4.27;;;31.90;56.20;;;;;;5081225;28;20514;-68
2023/06/22 11:48:51;;;;;;;4.33;3.47;;;32.10;55.90;;;;;;5082025;28;20533;-68
2023/06/22 11:51:18;;;;;;;5.70;3.40;;;32.50;55.40;;;;;;5083577;28;20973;-68
2023/06/22 11:53:45;;;;;;;7.57;3.97;;;33.00;54.50;;;;;;5084757;28;20539;-68
2023/06/22 11:56:12;;;;;;;4.27;3.87;;;33.40;53.30;;;;;;5085823;28;20485;-68
2023/06/22 11:58:38;;;;;;;4.57;4.17;;;33.70;50.40;;;;;;5084019;28;20533;-68
2023/06/22 12:01:05;;;;;;;5.00;4.60;;;33.90;48.70;;;;;;5084388;28;20556;-68
2023/06/22 12:03:32;;;;;;;4.27;3.97;;;33.90;46.30;;;;;;5085321;28;20482;-68
2023/06/22 12:06:01;;;;;;;8.27;7.47;;;33.90;46.80;;;;;;5086504;28;20546;-68
2023/06/22 12:08:28;;;;;;;5.00;4.50;;;34.10;46.00;;;;;;5086639;28;20447;-68
2023/06/22 12:10:54;;;;;;;3.30;3.10;;;34.30;45.80;;;;;;5087673;28;20962;-68
2023/06/22 12:13:24;;;;;;;5.30;4.13;;;34.60;44.40;;;;;;5086501;28;20454;-68
2023/06/22 12:15:52;;;;;;;4.27;3.87;;;34.80;41.30;;;;;;5086634;28;20502;-68
2023/06/22 12:18:20;;;;;;;7.13;3.90;;;35.00;42.80;;;;;;5087751;28;20450;-68
2023/06/22 12:20:47;;;;;;;4.40;4.00;;;35.30;41.20;;;;;;5087389;28;20812;-68
2023/06/22 12:23:16;;;;;;;7.90;3.63;;;35.10;39.80;;;;;;5086228;28;20458;-68
2023/06/22 12:25:43;;;;;;;3.50;3.30;;;34.80;40.10;;;;;;5086483;28;20576;-68
2023/06/22 12:28:09;;;;;;;5.50;3.60;;;35.00;39.50;;;;;;5087260;28;20474;-68
2023/06/22 12:30:36;;;;;;;6.43;3.77;;;35.00;38.90;;;;;;5088152;28;20509;-68
2023/06/22 12:33:06;;;;;;;4.47;4.07;;;35.10;39.00;;;;;;5087150;28;20760;-68
2023/06/22 12:35:33;;;;;;;3.50;3.17;;;35.40;38.00;;;;;;5086532;28;20831;-68
2023/06/22 12:38:00;;;;;;;4.47;3.60;;;35.70;36.50;;;;;;5085712;28;20489;-68
2023/06/22 12:40:28;;;;;;;5.87;5.37;;;35.80;37.00;;;;;;5085768;28;20541;-68